Stockton-on-Tees, United Kingdom

3:15 PM BST on July 01, 2015 (GMT +0100)
Yarm Weather | | Change Station
CLOSE
Current Station
Personal Weather Station
Location: Yarm, NORTH YORKSHIRE
Elevation: 115 ft
Nearby Weather Stations

Elev 115 ft 54.50 °N, 1.34 °W | Updated 2 minutes ago

Overcast
Overcast
83.1 °F
Feels Like 83 °F
N
3.8
Wind Variable Wind from ENE
Gusts 6.9 mph

Today
High -- | Low -- °F
--% Chance of Precip.
Yesterday
High -- | Low -- °F
Precip. -- in
4:34 AM 9:44 PM
Full, 100% visible
Pressure 29.86 in
Visibility 6.2 miles
Clouds Scattered Clouds 5000 ft
Overcast 13000 ft
Heat Index 83 °F
Dew Point 60 °F
Humidity 46%
Rainfall 0.00 in
Snow Depth Not available.
UV 3 out of 12
Pollen Not available.
Air Quality Not available.
Flu Activity Not available.
SPECI EGXE 011359Z 18021G32KT 9999 3000NE TSRA SCT050CB OVC130 22/17 Q1011 YLO1 TEMPO 1000 +TSGR BKN050

More Conditions Fewer Conditions

Pressure 29.86 in
Visibility 6.2 miles
Clouds Scattered Clouds 5000 ft
Overcast 13000 ft
Heat Index 83 °F
Dew Point 60 °F
Humidity 46%
Rainfall 0.00 in
Snow Depth Not available.
UV 3 out of 12
Pollen Not available.
Air Quality Not available.
Flu Activity Not available.
SPECI EGXE 011359Z 18021G32KT 9999 3000NE TSRA SCT050CB OVC130 22/17 Q1011 YLO1 TEMPO 1000 +TSGR BKN050

More Conditions Fewer Conditions

10-Day Weather Forecast

×

Almanac

Astronomy

Jul. 01, 2015 Rise Set
Actual Time
Civil Twilight
Nautical Twilight
Astronomical Twilight
Moon
Length of Visible Light
Length of Day
Tomorrow will be .
, % of the Moon is Illuminated

Today's Extremes

Country Highs Country Lows

Community

WunderPhotos

Upload Photos

1,834,202 photos uploaded!

WunderBlogs® & News

Nearby

Air Quality

  Air Quality AQ Index Pollutant
Not available.

Snow Depth

Station Depth Elevation

Earthquake Activity

City Distance Mag. Time & Date
Minimum magnitude displayed is 2.5.

Coastal Water Temperatures

Place Temperature

Stations

Nearby Weather Stations

Station Location Temp. Windchill Dew Point Humidity Wind Precip. Elev Updated Type